createdAt,value
2022-08-20T00:01:16.370Z,82.64
2022-08-20T00:03:50.015Z,82.33
2022-08-20T00:06:22.758Z,82.03
2022-08-20T00:08:50.222Z,82.56
2022-08-20T00:11:29.023Z,82.54
2022-08-20T00:14:04.639Z,82.28
2022-08-20T00:16:36.994Z,82.10
2022-08-20T00:19:06.622Z,83.13
2022-08-20T00:21:33.734Z,82.06
2022-08-20T00:24:02.058Z,82.29
2022-08-20T00:26:29.230Z,82.63
2022-08-20T00:28:56.080Z,83.22
2022-08-20T00:31:23.905Z,82.59
2022-08-20T00:33:51.544Z,82.78
2022-08-20T00:36:21.532Z,82.75
2022-08-20T00:38:49.424Z,83.25
2022-08-20T00:41:21.785Z,83.03
2022-08-20T00:43:59.301Z,83.24
2022-08-20T00:46:31.827Z,83.37
2022-08-20T00:48:59.866Z,83.27
2022-08-20T00:51:41.623Z,84.33
2022-08-20T00:54:23.231Z,84.06
2022-08-20T00:56:58.316Z,84.24
2022-08-20T00:59:27.970Z,84.39
2022-08-20T01:01:56.324Z,85.79
2022-08-20T01:04:33.611Z,84.96
2022-08-20T01:07:01.235Z,85.38
2022-08-20T01:09:50.144Z,85.00
2022-08-20T01:12:18.057Z,84.08
2022-08-20T01:14:45.731Z,84.15
2022-08-20T01:17:19.039Z,84.38
2022-08-20T01:19:52.122Z,84.25
2022-08-20T01:22:44.373Z,83.49
2022-08-20T01:25:20.754Z,83.53
2022-08-20T01:27:53.200Z,83.66
2022-08-20T01:30:24.178Z,82.84
2022-08-20T01:32:51.046Z,82.58
2022-08-20T01:35:24.553Z,81.79
2022-08-20T01:37:54.830Z,81.47
2022-08-20T01:40:39.919Z,81.14
2022-08-20T01:43:09.771Z,80.47
2022-08-20T01:45:41.970Z,80.67
2022-08-20T01:48:10.295Z,80.63
2022-08-20T01:50:42.208Z,79.39
2022-08-20T01:53:19.094Z,79.85
2022-08-20T01:55:46.726Z,80.33
2022-08-20T01:58:16.855Z,79.30
2022-08-20T02:00:49.078Z,79.17
2022-08-20T02:03:18.410Z,79.62
2022-08-20T02:05:47.664Z,78.83
2022-08-20T02:08:14.509Z,78.82
2022-08-20T02:10:41.760Z,78.53
2022-08-20T02:13:13.864Z,78.53
2022-08-20T02:15:45.318Z,79.02
2022-08-20T02:18:16.917Z,79.17
2022-08-20T02:20:48.010Z,79.53
2022-08-20T02:23:16.259Z,79.54
2022-08-20T02:25:44.407Z,79.26
2022-08-20T02:28:19.837Z,79.12
2022-08-20T02:30:50.026Z,78.97
2022-08-20T02:33:20.248Z,79.10
2022-08-20T02:35:55.573Z,79.08
2022-08-20T02:38:22.497Z,78.81
2022-08-20T02:40:50.068Z,79.27
2022-08-20T02:43:20.066Z,79.45
2022-08-20T02:45:51.896Z,79.58
2022-08-20T02:48:21.509Z,79.74
2022-08-20T02:51:01.883Z,79.52
2022-08-20T02:53:31.194Z,79.35
2022-08-20T02:55:57.971Z,79.43
2022-08-20T02:58:25.324Z,80.11
2022-08-20T03:00:54.392Z,80.00
2022-08-20T03:03:22.661Z,80.45
2022-08-20T03:05:52.467Z,80.22
2022-08-20T03:08:19.615Z,80.25
2022-08-20T03:10:50.132Z,79.97
2022-08-20T03:13:18.261Z,80.11
2022-08-20T03:15:50.066Z,79.27
2022-08-20T03:18:18.085Z,78.94
2022-08-20T03:20:46.039Z,80.03
2022-08-20T03:23:19.324Z,80.30
2022-08-20T03:25:46.872Z,80.04
2022-08-20T03:28:16.590Z,79.98
2022-08-20T03:30:43.791Z,80.39
2022-08-20T03:33:13.272Z,80.60
2022-08-20T03:35:40.224Z,80.23
2022-08-20T03:38:12.125Z,79.46
2022-08-20T03:40:40.578Z,79.77
2022-08-20T03:43:11.208Z,79.17
2022-08-20T03:45:47.360Z,79.25
2022-08-20T03:48:19.905Z,79.38
2022-08-20T03:50:53.100Z,78.79
2022-08-20T03:53:22.953Z,78.23
2022-08-20T03:56:02.233Z,78.38
2022-08-20T03:58:34.960Z,78.64
2022-08-20T04:01:44.260Z,77.94
2022-08-20T04:04:00.934Z,78.08
2022-08-20T04:06:30.421Z,78.26
2022-08-20T04:08:59.569Z,78.32
2022-08-20T04:11:33.693Z,78.41
2022-08-20T04:14:20.746Z,77.69
2022-08-20T04:16:49.017Z,76.94
2022-08-20T04:19:18.507Z,76.74
2022-08-20T04:21:48.544Z,76.44
2022-08-20T04:24:22.520Z,76.69
2022-08-20T04:26:58.889Z,76.42
2022-08-20T04:29:31.859Z,76.48
2022-08-20T04:32:00.690Z,76.97
2022-08-20T04:34:34.735Z,76.63
2022-08-20T04:40:30.371Z,76.81
2022-08-20T04:42:57.664Z,76.52
2022-08-20T04:45:28.052Z,76.35
2022-08-20T04:48:11.723Z,76.75
2022-08-20T04:50:51.199Z,75.98
2022-08-20T04:53:25.894Z,76.59
2022-08-20T04:55:57.570Z,77.04
2022-08-20T04:58:34.384Z,76.98
2022-08-20T05:01:05.517Z,76.95
2022-08-20T05:03:32.882Z,76.69
2022-08-20T05:06:01.735Z,76.74
2022-08-20T05:08:29.333Z,76.46
2022-08-20T05:11:32.781Z,76.61
2022-08-20T05:13:47.768Z,75.13
2022-08-20T05:16:17.632Z,74.92
2022-08-20T05:18:45.476Z,74.96
2022-08-20T05:21:19.183Z,74.33
2022-08-20T05:23:46.036Z,74.67
2022-08-20T05:26:16.023Z,74.47
2022-08-20T05:28:54.281Z,74.73
2022-08-20T05:31:30.858Z,75.13
2022-08-20T05:34:12.326Z,75.02
2022-08-20T05:36:43.406Z,74.97
2022-08-20T05:39:10.898Z,74.42
2022-08-20T05:41:41.312Z,72.97
2022-08-20T05:44:14.184Z,73.18
2022-08-20T05:46:42.753Z,72.85
2022-08-20T05:49:15.536Z,73.17
2022-08-20T05:51:43.125Z,73.05
2022-08-20T05:54:09.911Z,72.60
2022-08-20T05:56:37.405Z,72.55
2022-08-20T05:59:08.054Z,71.12
2022-08-20T06:01:42.107Z,70.09
2022-08-20T06:04:28.687Z,70.42
2022-08-20T06:07:04.593Z,70.92
2022-08-20T06:09:35.055Z,70.89
2022-08-20T06:12:03.896Z,71.28
2022-08-20T06:14:31.015Z,69.16
2022-08-20T06:17:13.527Z,70.63
2022-08-20T06:19:44.418Z,70.49
2022-08-20T06:22:19.782Z,70.23
2022-08-20T06:24:55.279Z,70.19
2022-08-20T06:27:22.713Z,70.11
2022-08-20T06:29:50.826Z,69.44
2022-08-20T06:32:19.933Z,69.05
2022-08-20T06:34:59.048Z,67.16
2022-08-20T06:37:31.331Z,67.01
2022-08-20T06:40:28.495Z,66.71
2022-08-20T06:42:56.530Z,66.14
2022-08-20T06:45:27.883Z,65.67
2022-08-20T06:48:01.359Z,64.87
2022-08-20T06:50:43.178Z,63.94
2022-08-20T06:53:16.609Z,65.53
2022-08-20T06:55:48.387Z,65.72
2022-08-20T06:58:32.698Z,65.34
2022-08-20T07:01:09.570Z,65.51
2022-08-20T07:03:42.113Z,65.72
2022-08-20T07:06:25.051Z,64.01
2022-08-20T07:08:54.845Z,62.89
2022-08-20T07:11:28.679Z,64.75
2022-08-20T07:13:57.976Z,65.52
2022-08-20T07:16:24.732Z,64.55
2022-08-20T07:18:54.082Z,64.37
2022-08-20T07:21:20.982Z,64.86
2022-08-20T07:23:50.251Z,64.07
2022-08-20T07:26:20.201Z,64.35
2022-08-20T07:28:50.103Z,64.83
2022-08-20T07:31:35.321Z,64.71
2022-08-20T07:34:03.319Z,63.54
2022-08-20T07:36:34.049Z,63.15
2022-08-20T07:39:06.112Z,62.20
2022-08-20T07:41:36.419Z,63.11
2022-08-20T07:44:04.722Z,62.20
2022-08-20T07:46:33.745Z,62.13
2022-08-20T07:49:00.781Z,62.07
2022-08-20T07:51:28.584Z,62.37
2022-08-20T07:53:58.392Z,61.72
2022-08-20T07:56:26.311Z,62.63
2022-08-20T07:58:56.270Z,61.58
2022-08-20T08:01:28.654Z,61.53
2022-08-20T08:03:59.206Z,60.35
2022-08-20T08:06:30.305Z,60.65
2022-08-20T08:09:16.272Z,62.42
2022-08-20T08:11:50.149Z,65.03
2022-08-20T08:14:23.748Z,65.99
2022-08-20T08:16:55.468Z,66.82
2022-08-20T08:19:25.779Z,67.60
2022-08-20T08:22:00.242Z,68.70
2022-08-20T08:24:28.617Z,68.38
2022-08-20T08:26:55.551Z,69.13
2022-08-20T08:29:24.978Z,70.58
2022-08-20T08:31:51.756Z,70.79
2022-08-20T08:34:28.601Z,71.41
2022-08-20T08:36:55.525Z,75.78
2022-08-20T08:39:22.817Z,75.93
2022-08-20T08:41:51.664Z,77.82
2022-08-20T08:44:28.522Z,77.26
2022-08-20T08:47:00.788Z,78.98
2022-08-20T08:49:37.368Z,78.68
2022-08-20T08:52:12.516Z,78.14
2022-08-20T08:54:43.640Z,78.30
2022-08-20T08:57:10.805Z,79.25
2022-08-20T08:59:52.470Z,80.20
2022-08-20T09:02:27.236Z,81.25
2022-08-20T09:04:58.703Z,82.26
2022-08-20T09:07:32.552Z,82.66
2022-08-20T09:10:01.515Z,83.11
2022-08-20T09:12:30.790Z,83.88
2022-08-20T09:14:58.349Z,84.17
2022-08-20T09:17:30.182Z,84.14
2022-08-20T09:19:59.080Z,84.54
2022-08-20T09:22:28.115Z,84.88
2022-08-20T09:24:56.223Z,85.05
2022-08-20T09:27:23.057Z,85.05
2022-08-20T09:29:50.281Z,84.16
2022-08-20T09:32:21.940Z,84.46
2022-08-20T09:34:58.972Z,85.18
2022-08-20T09:37:35.095Z,85.62
2022-08-20T09:40:05.339Z,85.90
2022-08-20T09:42:40.936Z,85.91
2022-08-20T09:45:13.742Z,85.02
2022-08-20T09:47:56.407Z,86.03
2022-08-20T09:50:28.265Z,87.10
2022-08-20T09:52:56.539Z,87.12
2022-08-20T09:55:40.811Z,87.31
2022-08-20T09:58:24.848Z,87.04
2022-08-20T10:00:52.019Z,86.64
2022-08-20T10:03:21.191Z,86.20
2022-08-20T10:05:53.196Z,86.69
2022-08-20T10:08:23.164Z,87.56
2022-08-20T10:10:51.851Z,88.28
2022-08-20T10:13:18.581Z,88.79
2022-08-20T10:15:45.734Z,89.58
2022-08-20T10:18:12.564Z,90.40
2022-08-20T10:20:41.541Z,91.62
2022-08-20T10:23:11.420Z,90.85
2022-08-20T10:25:38.983Z,92.11
2022-08-20T10:28:07.076Z,94.38
2022-08-20T10:30:38.585Z,94.73
2022-08-20T10:33:05.306Z,90.33
2022-08-20T10:35:35.294Z,87.09
2022-08-20T10:38:04.558Z,89.25
2022-08-20T10:40:31.401Z,86.16
2022-08-20T10:43:00.589Z,85.82
2022-08-20T10:45:27.448Z,86.14
2022-08-20T10:47:59.688Z,86.19
2022-08-20T10:50:29.533Z,86.15
2022-08-20T10:53:00.823Z,80.26
2022-08-20T10:55:28.130Z,81.78
2022-08-20T10:57:56.009Z,78.13
2022-08-20T11:00:23.346Z,78.40
2022-08-20T11:02:58.251Z,77.05
2022-08-20T11:05:26.862Z,78.07
2022-08-20T11:07:56.706Z,77.76
2022-08-20T11:10:27.283Z,76.50
2022-08-20T11:13:02.072Z,77.52
2022-08-20T11:15:34.440Z,75.95
2022-08-20T11:18:01.243Z,77.53
2022-08-20T11:20:31.944Z,75.68
2022-08-20T11:23:02.318Z,75.38
2022-08-20T11:25:33.723Z,75.48
2022-08-20T11:28:08.551Z,74.00
2022-08-20T11:30:38.637Z,71.30
2022-08-20T11:33:08.078Z,73.93
2022-08-20T11:35:48.226Z,73.77
2022-08-20T11:38:19.952Z,69.92
2022-08-20T11:40:47.024Z,71.58
2022-08-20T11:43:18.054Z,69.95
2022-08-20T11:45:49.893Z,70.83
2022-08-20T11:48:22.368Z,68.22
2022-08-20T11:50:52.917Z,66.74
2022-08-20T11:53:20.212Z,68.65
2022-08-20T11:55:49.697Z,66.16
2022-08-20T11:58:16.550Z,65.21
2022-08-20T12:00:46.454Z,65.19
2022-08-20T12:03:19.412Z,66.79
2022-08-20T12:05:47.194Z,66.58
2022-08-20T12:08:25.165Z,68.14
2022-08-20T12:10:54.118Z,68.19
2022-08-20T12:13:20.899Z,67.59
2022-08-20T12:15:55.564Z,67.55
2022-08-20T12:18:27.001Z,66.58
2022-08-20T12:20:53.939Z,65.25
2022-08-20T12:23:22.857Z,64.45
2022-08-20T12:25:49.966Z,64.88
2022-08-20T12:28:17.167Z,64.38
2022-08-20T12:30:52.326Z,64.99
2022-08-20T12:33:21.562Z,64.86
2022-08-20T12:35:48.858Z,65.01
2022-08-20T12:38:15.593Z,64.75
2022-08-20T12:40:44.090Z,64.01
2022-08-20T12:43:11.088Z,63.77
2022-08-20T12:45:43.738Z,63.11
2022-08-20T12:48:13.761Z,60.92
2022-08-20T12:50:50.417Z,59.04
2022-08-20T12:53:20.422Z,59.70
2022-08-20T12:55:52.637Z,60.39
2022-08-20T12:58:19.747Z,62.13
2022-08-20T13:00:50.608Z,61.00
2022-08-20T13:03:24.587Z,61.00
2022-08-20T13:05:51.344Z,61.16
2022-08-20T13:08:20.522Z,61.30
2022-08-20T13:10:52.526Z,61.41
2022-08-20T13:13:21.504Z,61.09
2022-08-20T13:15:55.917Z,61.61
2022-08-20T13:18:28.472Z,63.05
2022-08-20T13:20:55.259Z,62.61
2022-08-20T13:23:22.209Z,61.61
2022-08-20T13:25:49.504Z,62.46
2022-08-20T13:28:18.873Z,61.68
2022-08-20T13:30:48.406Z,61.86
2022-08-20T13:33:17.827Z,62.30
2022-08-20T13:35:47.831Z,62.21
2022-08-20T13:38:16.987Z,61.09
2022-08-20T13:40:48.799Z,60.59
2022-08-20T13:43:19.037Z,61.26
2022-08-20T13:45:48.001Z,60.99
2022-08-20T13:48:17.252Z,60.82
2022-08-20T13:50:47.267Z,59.83
2022-08-20T13:53:14.541Z,58.41
2022-08-20T13:55:41.421Z,59.42
2022-08-20T13:58:10.221Z,59.30
2022-08-20T14:00:39.601Z,59.19
2022-08-20T14:03:09.078Z,58.70
2022-08-20T14:05:39.736Z,59.10
2022-08-20T14:08:12.949Z,58.89
2022-08-20T14:10:40.079Z,58.76
2022-08-20T14:13:15.654Z,58.49
2022-08-20T14:15:46.003Z,59.14
2022-08-20T14:18:15.578Z,59.14
2022-08-20T14:20:42.922Z,58.51
2022-08-20T14:23:12.261Z,58.68
2022-08-20T14:25:39.829Z,58.70
2022-08-20T14:28:12.528Z,58.62
2022-08-20T14:30:45.641Z,58.64
2022-08-20T14:33:15.348Z,58.72
2022-08-20T14:35:42.734Z,57.87
2022-08-20T14:38:09.522Z,57.45
2022-08-20T14:40:38.987Z,57.69
2022-08-20T14:43:11.001Z,57.51
2022-08-20T14:45:45.757Z,57.54
2022-08-20T14:48:17.318Z,57.10
2022-08-20T14:50:44.577Z,57.33
2022-08-20T14:53:13.536Z,57.42
2022-08-20T14:55:40.372Z,57.96
2022-08-20T14:58:09.287Z,57.91
2022-08-20T15:00:36.816Z,57.52
2022-08-20T15:03:03.586Z,57.81
2022-08-20T15:05:31.207Z,57.81
2022-08-20T15:08:02.617Z,56.73
2022-08-20T15:10:32.086Z,57.14
2022-08-20T15:12:59.589Z,57.06
2022-08-20T15:15:26.544Z,57.11
2022-08-20T15:18:06.883Z,56.26
2022-08-20T15:20:38.722Z,56.96
2022-08-20T15:23:10.287Z,57.43
2022-08-20T15:25:38.101Z,57.53
2022-08-20T15:28:08.499Z,55.90
2022-08-20T15:30:36.922Z,56.73
2022-08-20T15:33:04.458Z,57.76
2022-08-20T15:35:31.862Z,57.62
2022-08-20T15:37:59.637Z,58.04
2022-08-20T15:40:32.708Z,58.37
2022-08-20T15:43:01.317Z,58.73
2022-08-20T15:45:30.930Z,58.77
2022-08-20T15:48:13.790Z,59.60
2022-08-20T15:51:07.994Z,59.38
2022-08-20T15:54:00.345Z,60.09
2022-08-20T15:56:50.495Z,60.04
2022-08-20T15:59:54.077Z,60.51
2022-08-20T16:02:43.214Z,60.48
2022-08-20T16:05:40.990Z,61.29
2022-08-20T16:08:41.631Z,61.59
2022-08-20T16:11:58.522Z,62.25
2022-08-20T16:14:28.111Z,62.04
2022-08-20T16:17:02.038Z,62.09
2022-08-20T16:19:53.175Z,62.22
2022-08-20T16:22:21.866Z,61.63
2022-08-20T16:24:49.221Z,61.68
2022-08-20T16:27:57.476Z,62.18
2022-08-20T16:30:33.652Z,62.55
2022-08-20T16:33:11.128Z,62.46
2022-08-20T16:35:50.873Z,62.44
2022-08-20T16:38:31.436Z,62.41
2022-08-20T16:41:07.395Z,62.29
2022-08-20T16:43:42.265Z,61.91
2022-08-20T16:46:16.065Z,62.46
2022-08-20T16:48:51.576Z,61.74
2022-08-20T16:51:28.109Z,61.82
2022-08-20T16:54:09.899Z,62.71
2022-08-20T16:56:46.834Z,62.51
2022-08-20T16:59:26.957Z,62.75
2022-08-20T17:02:17.370Z,63.06
2022-08-20T17:04:50.542Z,62.62
2022-08-20T17:07:46.454Z,63.49
2022-08-20T17:10:30.192Z,63.42
2022-08-20T17:13:19.980Z,63.77
2022-08-20T17:15:55.727Z,64.29
2022-08-20T17:18:34.756Z,64.54
2022-08-20T17:21:15.480Z,64.87
2022-08-20T17:23:58.205Z,64.97
2022-08-20T17:27:01.984Z,65.60
2022-08-20T17:29:34.395Z,65.31
2022-08-20T17:32:17.200Z,65.61
2022-08-20T17:34:47.435Z,65.36
2022-08-20T17:37:28.589Z,65.18
2022-08-20T17:40:15.059Z,65.29
2022-08-20T17:43:01.890Z,65.35
2022-08-20T17:45:42.289Z,65.51
2022-08-20T17:48:17.233Z,65.40
2022-08-20T17:50:49.975Z,65.85
2022-08-20T17:53:26.904Z,66.19
2022-08-20T17:55:58.675Z,66.27
2022-08-20T17:58:54.966Z,66.27
2022-08-20T18:01:24.431Z,66.18
2022-08-20T18:03:54.180Z,66.73
2022-08-20T18:06:35.385Z,66.62
2022-08-20T18:09:17.734Z,66.99
2022-08-20T18:11:59.019Z,67.39
2022-08-20T18:14:44.578Z,67.76
2022-08-20T18:17:17.222Z,68.18
2022-08-20T18:20:23.913Z,68.13
2022-08-20T18:23:00.158Z,68.25
2022-08-20T18:25:52.716Z,68.08
2022-08-20T18:28:23.528Z,68.28
2022-08-20T18:31:12.645Z,68.85
2022-08-20T18:33:45.776Z,68.58
2022-08-20T18:36:19.359Z,68.85
2022-08-20T18:39:05.387Z,68.63
2022-08-20T18:41:33.965Z,69.01
2022-08-20T18:44:51.092Z,69.15
2022-08-20T18:47:32.947Z,69.59
2022-08-20T18:50:16.713Z,69.39
2022-08-20T18:52:54.896Z,69.97
2022-08-20T18:55:33.682Z,69.98
2022-08-20T18:58:15.184Z,69.92
2022-08-20T19:00:48.078Z,69.96
2022-08-20T19:03:40.461Z,69.90
2022-08-20T19:06:13.676Z,70.00
2022-08-20T19:08:59.866Z,69.75
2022-08-20T19:12:02.070Z,69.37
2022-08-20T19:15:13.369Z,70.42
2022-08-20T19:18:11.850Z,71.51
2022-08-20T19:20:55.597Z,71.74
2022-08-20T19:23:26.044Z,71.73
2022-08-20T19:26:25.141Z,72.86
2022-08-20T19:29:07.925Z,73.44
2022-08-20T19:31:35.673Z,73.28
2022-08-20T19:34:19.583Z,73.50
2022-08-20T19:37:35.244Z,73.32
2022-08-20T19:40:07.487Z,73.69
2022-08-20T19:42:45.269Z,73.65
2022-08-20T19:45:28.643Z,73.45
2022-08-20T19:48:27.779Z,73.05
2022-08-20T19:51:25.137Z,73.61
2022-08-20T19:53:57.215Z,73.59
2022-08-20T19:56:26.797Z,73.47
2022-08-20T19:59:05.743Z,73.27
2022-08-20T20:01:36.084Z,73.92
2022-08-20T20:04:16.812Z,74.03
2022-08-20T20:06:45.707Z,74.43
2022-08-20T20:09:24.843Z,74.60
2022-08-20T20:12:02.752Z,74.90
2022-08-20T20:14:36.758Z,75.03
2022-08-20T20:17:14.780Z,74.95
2022-08-20T20:19:51.185Z,75.15
2022-08-20T20:22:30.696Z,75.01
2022-08-20T20:25:06.372Z,75.19
2022-08-20T20:27:34.329Z,75.01
2022-08-20T20:30:11.998Z,74.86
2022-08-20T20:32:48.671Z,75.17
2022-08-20T20:35:33.732Z,75.10
2022-08-20T20:38:19.781Z,75.29
2022-08-20T20:40:55.967Z,75.33
2022-08-20T20:43:30.633Z,75.01
2022-08-20T20:46:00.965Z,75.21
2022-08-20T20:48:33.728Z,75.10
2022-08-20T20:51:18.774Z,75.17
2022-08-20T20:53:54.826Z,75.25
2022-08-20T20:56:27.207Z,75.34
2022-08-20T20:59:01.298Z,75.45
2022-08-20T21:01:45.787Z,75.49
2022-08-20T21:04:24.263Z,75.18
2022-08-20T21:06:56.335Z,75.14
2022-08-20T21:09:26.766Z,75.06
2022-08-20T21:11:55.716Z,74.88
2022-08-20T21:14:24.775Z,74.65
2022-08-20T21:16:54.598Z,74.64
2022-08-20T21:19:26.183Z,74.53
2022-08-20T21:21:53.509Z,74.42
2022-08-20T21:24:23.555Z,74.21
2022-08-20T21:26:50.819Z,74.06
2022-08-20T21:29:32.299Z,74.01
2022-08-20T21:32:00.657Z,74.30
2022-08-20T21:34:31.501Z,74.48
2022-08-20T21:37:01.469Z,74.48
2022-08-20T21:39:33.585Z,74.63
2022-08-20T21:42:03.808Z,74.38
2022-08-20T21:44:33.589Z,74.62
2022-08-20T21:47:02.346Z,74.59
2022-08-20T21:49:30.050Z,74.48
2022-08-20T21:52:02.014Z,74.56
2022-08-20T21:54:28.731Z,74.38
2022-08-20T21:57:09.363Z,74.31
2022-08-20T21:59:39.137Z,74.50
2022-08-20T22:02:09.047Z,74.13
2022-08-20T22:04:35.913Z,73.93
2022-08-20T22:07:03.665Z,73.98
2022-08-20T22:09:32.842Z,74.29
2022-08-20T22:12:05.838Z,74.13
2022-08-20T22:14:33.038Z,74.19
2022-08-20T22:16:59.725Z,74.11
2022-08-20T22:19:26.778Z,74.39
2022-08-20T22:21:55.486Z,74.14
2022-08-20T22:24:23.208Z,73.96
2022-08-20T22:26:52.382Z,74.06
2022-08-20T22:29:19.846Z,74.15
2022-08-20T22:31:46.623Z,74.01
2022-08-20T22:34:15.494Z,73.99
2022-08-20T22:36:42.741Z,74.23
2022-08-20T22:39:12.608Z,74.07
2022-08-20T22:41:39.801Z,73.95
2022-08-20T22:44:09.408Z,73.68
2022-08-20T22:46:44.952Z,74.16
2022-08-20T22:49:16.964Z,74.52
2022-08-20T22:51:44.089Z,74.80
2022-08-20T22:54:13.001Z,75.08
2022-08-20T22:56:44.662Z,75.21
2022-08-20T22:59:11.980Z,75.50
2022-08-20T23:01:41.463Z,75.68
2022-08-20T23:04:22.738Z,75.93
2022-08-20T23:06:52.536Z,75.20
2022-08-20T23:09:21.677Z,75.11
2022-08-20T23:11:48.928Z,75.29
2022-08-20T23:14:15.865Z,75.63
2022-08-20T23:16:48.799Z,75.61
2022-08-20T23:19:22.467Z,75.32
2022-08-20T23:21:50.650Z,74.98
2022-08-20T23:24:18.010Z,74.91
2022-08-20T23:26:52.774Z,75.26
2022-08-20T23:29:22.501Z,75.23
2022-08-20T23:31:53.988Z,75.51
2022-08-20T23:34:20.781Z,75.54
2022-08-20T23:36:53.029Z,75.58
2022-08-20T23:39:22.757Z,75.41
2022-08-20T23:41:51.949Z,75.84
2022-08-20T23:44:26.040Z,75.87
2022-08-20T23:47:03.996Z,75.74
2022-08-20T23:49:34.597Z,75.63
2022-08-20T23:52:01.551Z,75.57
2022-08-20T23:54:30.688Z,75.56
2022-08-20T23:56:59.700Z,75.91
2022-08-20T23:59:28.811Z,76.05
